createdAt,value
2022-10-02T00:01:02.246Z,94898
2022-10-02T00:04:27.920Z,94898
2022-10-02T00:07:53.224Z,94908
2022-10-02T00:11:18.658Z,94912
2022-10-02T00:14:44.094Z,94920
2022-10-02T00:18:09.474Z,94924
2022-10-02T00:21:34.883Z,94920
2022-10-02T00:25:00.282Z,94921
2022-10-02T00:28:25.703Z,94924
2022-10-02T00:31:51.161Z,94933
2022-10-02T00:35:16.499Z,94926
2022-10-02T00:38:41.891Z,94931
2022-10-02T00:42:07.282Z,94928
2022-10-02T00:45:32.729Z,94935
2022-10-02T00:48:58.123Z,94938
2022-10-02T00:52:23.484Z,94936
2022-10-02T00:55:48.907Z,94940
2022-10-02T00:59:14.324Z,94942
2022-10-02T01:02:39.698Z,94943
2022-10-02T01:06:05.123Z,94944
2022-10-02T01:09:30.514Z,94940
2022-10-02T01:12:56.809Z,94947
2022-10-02T01:16:22.291Z,94952
2022-10-02T01:19:47.632Z,94950
2022-10-02T01:23:13.077Z,94951
2022-10-02T01:26:38.713Z,94957
2022-10-02T01:30:03.856Z,94960
2022-10-02T01:33:29.280Z,94951
2022-10-02T01:36:54.698Z,94957
2022-10-02T01:40:20.140Z,94952
2022-10-02T01:43:45.544Z,94956
2022-10-02T01:47:10.986Z,94958
2022-10-02T01:50:36.351Z,94964
2022-10-02T01:54:01.721Z,94971
2022-10-02T01:57:27.189Z,94969
2022-10-02T02:00:52.611Z,94965
2022-10-02T02:04:17.944Z,94960
2022-10-02T02:07:43.359Z,94958
2022-10-02T02:11:08.751Z,94961
2022-10-02T02:14:34.164Z,94969
2022-10-02T02:17:59.525Z,94979
2022-10-02T02:21:25.132Z,94981
2022-10-02T02:24:50.515Z,94979
2022-10-02T02:28:15.966Z,94974
2022-10-02T02:31:41.370Z,94968
2022-10-02T02:35:06.750Z,94971
2022-10-02T02:38:32.183Z,94967
2022-10-02T02:41:57.581Z,94966
2022-10-02T02:45:23.076Z,94972
2022-10-02T02:48:48.392Z,94970
2022-10-02T02:52:13.750Z,94979
2022-10-02T02:55:42.832Z,94979
2022-10-02T02:59:04.601Z,94981
2022-10-02T03:02:30.044Z,94985
2022-10-02T03:05:55.435Z,94994
2022-10-02T03:09:20.806Z,94988
2022-10-02T03:12:46.234Z,94988
2022-10-02T03:16:11.706Z,94994
2022-10-02T03:19:37.005Z,95004
2022-10-02T03:23:02.409Z,95007
2022-10-02T03:26:27.827Z,95002
2022-10-02T03:29:53.212Z,95003
2022-10-02T03:33:18.615Z,94998
2022-10-02T03:36:44.006Z,94994
2022-10-02T03:40:09.434Z,94990
2022-10-02T03:43:34.862Z,95000
2022-10-02T03:47:00.288Z,95002
2022-10-02T03:50:25.696Z,94993
2022-10-02T03:53:51.103Z,94987
2022-10-02T03:57:16.518Z,94989
2022-10-02T04:00:41.906Z,94988
2022-10-02T04:04:07.305Z,94996
2022-10-02T04:07:32.726Z,94993
2022-10-02T04:10:58.141Z,94991
2022-10-02T04:14:23.545Z,94987
2022-10-02T04:17:48.957Z,94980
2022-10-02T04:21:14.387Z,94984
2022-10-02T04:24:39.792Z,94991
2022-10-02T04:28:05.315Z,95000
2022-10-02T04:31:30.720Z,94995
2022-10-02T04:34:56.074Z,94982
2022-10-02T04:38:21.430Z,94970
2022-10-02T04:41:46.817Z,94987
2022-10-02T04:45:12.204Z,94992
2022-10-02T04:48:37.600Z,94994
2022-10-02T04:52:02.989Z,94987
2022-10-02T04:55:28.415Z,94992
2022-10-02T04:58:53.825Z,94983
2022-10-02T05:02:19.279Z,94983
2022-10-02T05:05:44.644Z,94981
2022-10-02T05:09:10.022Z,94985
2022-10-02T05:12:35.462Z,94975
2022-10-02T05:16:00.880Z,94981
2022-10-02T05:19:26.261Z,94980
2022-10-02T05:22:51.628Z,94975
2022-10-02T05:26:17.058Z,94968
2022-10-02T05:29:42.459Z,94968
2022-10-02T05:33:07.855Z,94968
2022-10-02T05:36:33.623Z,94972
2022-10-02T05:39:58.703Z,94962
2022-10-02T05:43:24.135Z,94979
2022-10-02T05:46:49.717Z,94973
2022-10-02T05:50:15.064Z,94974
2022-10-02T05:53:40.419Z,94968
2022-10-02T05:57:05.833Z,94968
2022-10-02T06:00:31.213Z,94981
2022-10-02T06:03:56.597Z,94988
2022-10-02T06:07:22.003Z,94980
2022-10-02T06:10:47.372Z,94978
2022-10-02T06:14:12.759Z,94979
2022-10-02T06:17:38.122Z,94981
2022-10-02T06:21:03.528Z,94976
2022-10-02T06:24:28.908Z,94983
2022-10-02T06:27:54.385Z,94988
2022-10-02T06:31:19.913Z,94985
2022-10-02T06:34:47.898Z,94984
2022-10-02T06:38:10.370Z,94981
2022-10-02T06:41:35.729Z,94981
2022-10-02T06:45:01.124Z,94984
2022-10-02T06:48:26.481Z,94982
2022-10-02T06:51:51.781Z,94989
2022-10-02T06:55:17.136Z,94991
2022-10-02T06:58:42.605Z,94991
2022-10-02T07:02:08.016Z,94988
2022-10-02T07:05:33.387Z,94988
2022-10-02T07:08:58.720Z,94979
2022-10-02T07:12:24.065Z,94985
2022-10-02T07:15:49.451Z,94985
2022-10-02T07:19:15.508Z,94970
2022-10-02T07:22:44.806Z,94978
2022-10-02T07:26:06.283Z,94981
2022-10-02T07:29:31.704Z,94990
2022-10-02T07:32:57.061Z,94992
2022-10-02T07:36:22.475Z,94992
2022-10-02T07:39:47.865Z,94997
2022-10-02T07:43:13.211Z,94988
2022-10-02T07:46:38.910Z,94999
2022-10-02T07:50:03.952Z,95001
2022-10-02T07:53:29.331Z,95003
2022-10-02T07:56:54.734Z,94989
2022-10-02T08:00:20.155Z,95002
2022-10-02T08:03:45.457Z,95004
2022-10-02T08:07:10.819Z,94990
2022-10-02T08:10:36.203Z,94985
2022-10-02T08:14:01.608Z,94979
2022-10-02T08:17:26.953Z,94989
2022-10-02T08:20:52.315Z,94995
2022-10-02T08:24:17.686Z,94994
2022-10-02T08:27:43.112Z,94999
2022-10-02T08:31:08.500Z,95002
2022-10-02T08:34:33.861Z,95001
2022-10-02T08:37:59.201Z,94992
2022-10-02T08:41:24.540Z,94989
2022-10-02T08:44:49.953Z,94989
2022-10-02T08:48:15.332Z,94989
2022-10-02T08:51:40.681Z,94987
2022-10-02T08:55:06.088Z,94983
2022-10-02T08:58:31.461Z,94981
2022-10-02T09:01:59.874Z,94984
2022-10-02T09:05:22.217Z,94981
2022-10-02T09:08:47.608Z,94991
2022-10-02T09:12:13.002Z,94979
2022-10-02T09:15:38.403Z,94979
2022-10-02T09:19:03.791Z,94983
2022-10-02T09:22:29.165Z,94974
2022-10-02T09:25:54.499Z,94985
2022-10-02T09:29:19.906Z,94982
2022-10-02T09:32:45.279Z,94974
2022-10-02T09:36:10.659Z,94971
2022-10-02T09:39:36.095Z,94969
2022-10-02T09:43:01.430Z,94963
2022-10-02T09:46:26.824Z,94961
2022-10-02T09:49:52.194Z,94961
2022-10-02T09:53:17.600Z,94964
2022-10-02T09:56:42.958Z,94970
2022-10-02T10:00:08.273Z,94971
2022-10-02T10:03:33.631Z,94969
2022-10-02T10:06:58.996Z,94970
2022-10-02T10:10:24.371Z,94964
2022-10-02T10:13:49.762Z,94961
2022-10-02T10:17:15.132Z,94960
2022-10-02T10:20:40.519Z,94961
2022-10-02T10:24:05.897Z,94959
2022-10-02T10:27:31.278Z,94950
2022-10-02T10:30:56.712Z,94966
2022-10-02T10:34:22.063Z,94969
2022-10-02T10:37:47.396Z,94982
2022-10-02T10:41:12.783Z,94966
2022-10-02T10:44:38.106Z,94976
2022-10-02T10:48:03.430Z,94963
2022-10-02T10:51:28.810Z,94968
2022-10-02T10:54:54.228Z,94973
2022-10-02T10:58:19.579Z,94975
2022-10-02T11:01:44.981Z,94979
2022-10-02T11:05:10.383Z,94978
2022-10-02T11:08:35.730Z,94975
2022-10-02T11:12:04.271Z,94972
2022-10-02T11:15:28.036Z,94966
2022-10-02T11:18:53.422Z,94969
2022-10-02T11:22:18.850Z,94964
2022-10-02T11:25:44.175Z,94962
2022-10-02T11:29:09.596Z,94957
2022-10-02T11:32:34.969Z,94960
2022-10-02T11:36:00.359Z,94954
2022-10-02T11:39:25.865Z,94958
2022-10-02T11:42:51.112Z,94957
2022-10-02T11:46:16.549Z,94955
2022-10-02T11:49:41.966Z,94958
2022-10-02T11:53:07.350Z,94965
2022-10-02T11:56:32.720Z,94966
2022-10-02T11:59:58.069Z,94967
2022-10-02T12:03:23.534Z,94972
2022-10-02T12:06:48.802Z,94969
2022-10-02T12:10:14.185Z,94968
2022-10-02T12:13:39.591Z,94977
2022-10-02T12:17:04.950Z,94971
2022-10-02T12:20:30.350Z,94975
2022-10-02T12:23:55.732Z,94974
2022-10-02T12:27:24.282Z,94976
2022-10-02T12:30:49.657Z,94972
2022-10-02T12:34:31.056Z,94976
2022-10-02T12:37:56.411Z,94973
2022-10-02T12:41:21.757Z,94970
2022-10-02T12:44:47.158Z,94971
2022-10-02T12:48:12.540Z,94969
2022-10-02T12:51:38.137Z,94973
2022-10-02T12:55:03.298Z,94970
2022-10-02T12:58:28.705Z,94974
2022-10-02T13:01:54.147Z,94971
2022-10-02T13:05:19.639Z,94977
2022-10-02T13:08:45.078Z,94970
2022-10-02T13:12:10.501Z,94973
2022-10-02T13:15:35.964Z,94973
2022-10-02T13:19:01.363Z,94973
2022-10-02T13:22:26.810Z,94969
2022-10-02T13:25:52.201Z,94970
2022-10-02T13:29:17.700Z,94970
2022-10-02T13:32:43.186Z,94964
2022-10-02T13:36:08.624Z,94964
2022-10-02T13:39:34.101Z,94963
2022-10-02T13:42:59.572Z,94959
2022-10-02T13:46:25.013Z,94959
2022-10-02T13:49:50.411Z,94957
2022-10-02T13:53:15.861Z,94958
2022-10-02T13:56:41.384Z,94961
2022-10-02T14:00:06.785Z,94957
2022-10-02T14:03:32.309Z,94960
2022-10-02T14:06:57.754Z,94957
2022-10-02T14:10:23.208Z,94961
2022-10-02T14:13:48.695Z,94951
2022-10-02T14:17:14.050Z,94959
2022-10-02T14:20:39.410Z,94955
2022-10-02T14:24:04.780Z,94956
2022-10-02T14:27:30.155Z,94958
2022-10-02T15:05:36.796Z,94979
2022-10-02T15:09:02.042Z,94992
2022-10-02T15:12:27.346Z,94987
2022-10-02T15:15:52.646Z,94989
2022-10-02T15:19:19.365Z,94986
2022-10-02T15:22:45.335Z,94986
2022-10-02T15:26:11.256Z,94991
2022-10-02T15:29:36.652Z,94993
2022-10-02T15:33:02.090Z,94982
2022-10-02T15:36:28.422Z,94985
2022-10-02T15:39:53.976Z,94984
2022-10-02T15:43:19.227Z,94987
2022-10-02T15:46:44.504Z,94992
2022-10-02T15:50:09.786Z,94996
2022-10-02T15:53:35.079Z,94999
2022-10-02T15:57:00.565Z,95003
2022-10-02T16:00:25.723Z,95010
2022-10-02T16:03:51.123Z,95012
2022-10-02T16:07:16.290Z,95005
2022-10-02T16:10:41.562Z,95007
2022-10-02T16:14:06.886Z,95016
2022-10-02T16:17:32.113Z,95017
2022-10-02T16:20:57.396Z,95026
2022-10-02T16:24:22.695Z,95022
2022-10-02T16:27:48.011Z,95027
2022-10-02T16:31:13.325Z,95024
2022-10-02T16:34:38.585Z,95031
2022-10-02T16:38:03.902Z,95032
2022-10-02T16:41:29.234Z,95039
2022-10-02T16:44:54.547Z,95046
2022-10-02T16:48:19.870Z,95046
2022-10-02T16:51:45.191Z,95049
2022-10-02T16:55:10.492Z,95059
2022-10-02T16:58:35.865Z,95059
2022-10-02T17:02:18.420Z,95066
2022-10-02T17:05:26.756Z,95066
2022-10-02T17:08:52.231Z,95068
2022-10-02T17:12:17.672Z,95068
2022-10-02T17:15:43.140Z,95074
2022-10-02T17:19:08.565Z,95079
2022-10-02T17:22:34.054Z,95083
2022-10-02T17:25:59.454Z,95097
2022-10-02T17:29:24.926Z,95103
2022-10-02T17:32:50.314Z,95105
2022-10-02T17:36:16.676Z,95108
2022-10-02T17:39:42.176Z,95119
2022-10-02T17:43:07.641Z,95124
2022-10-02T17:46:33.067Z,95117
2022-10-02T17:49:58.442Z,95122
2022-10-02T17:53:23.871Z,95122
2022-10-02T17:56:49.322Z,95123
2022-10-02T18:00:14.691Z,95130
2022-10-02T18:03:40.123Z,95136
2022-10-02T18:07:05.538Z,95139
2022-10-02T18:10:30.980Z,95142
2022-10-02T18:13:59.515Z,95146
2022-10-02T18:17:21.885Z,95154
2022-10-02T18:20:47.320Z,95157
2022-10-02T18:24:12.770Z,95165
2022-10-02T18:27:38.208Z,95173
2022-10-02T18:31:03.727Z,95173
2022-10-02T18:34:29.070Z,95185
2022-10-02T18:37:54.490Z,95190
2022-10-02T18:41:19.917Z,95191
2022-10-02T18:44:45.355Z,95198
2022-10-02T18:48:10.805Z,95213
2022-10-02T18:51:36.409Z,95208
2022-10-02T18:55:02.576Z,95217
2022-10-02T18:58:28.018Z,95225
2022-10-02T19:01:53.421Z,95227
2022-10-02T19:05:18.813Z,95224
2022-10-02T19:08:44.269Z,95227
2022-10-02T19:12:09.754Z,95229
2022-10-02T19:15:35.182Z,95226
2022-10-02T19:19:00.610Z,95232
2022-10-02T19:22:26.042Z,95233
2022-10-02T19:25:51.382Z,95237
2022-10-02T19:29:16.779Z,95241
2022-10-02T19:32:42.170Z,95250
2022-10-02T19:36:07.662Z,95258
2022-10-02T19:39:33.080Z,95259
2022-10-02T19:42:58.455Z,95258
2022-10-02T19:46:23.808Z,95266
2022-10-02T19:49:49.249Z,95279
2022-10-02T19:53:14.654Z,95281
2022-10-02T19:56:40.076Z,95289
2022-10-02T20:00:05.546Z,95283
2022-10-02T20:03:30.976Z,95292
2022-10-02T20:06:56.424Z,95290
2022-10-02T20:10:21.863Z,95297
2022-10-02T20:13:47.283Z,95300
2022-10-02T20:17:12.842Z,95302
2022-10-02T20:20:38.161Z,95313
2022-10-02T20:24:03.582Z,95308
2022-10-02T20:27:29.042Z,95322
2022-10-02T20:30:54.505Z,95323
2022-10-02T20:34:19.925Z,95330
2022-10-02T20:37:45.420Z,95333
2022-10-02T20:41:10.884Z,95339
2022-10-02T20:44:36.344Z,95342
2022-10-02T20:48:01.789Z,95346
2022-10-02T20:51:27.253Z,95348
2022-10-02T20:54:52.711Z,95356
2022-10-02T20:58:18.189Z,95357
2022-10-02T21:01:43.689Z,95358
2022-10-02T21:05:09.180Z,95360
2022-10-02T21:08:34.610Z,95363
2022-10-02T21:12:00.039Z,95371
2022-10-02T21:15:25.484Z,95373
2022-10-02T21:18:50.940Z,95373
2022-10-02T21:22:16.440Z,95379
2022-10-02T21:25:42.258Z,95387
2022-10-02T21:29:07.705Z,95391
2022-10-02T21:32:33.171Z,95393
2022-10-02T21:35:58.630Z,95402
2022-10-02T21:39:24.161Z,95396
2022-10-02T21:42:49.584Z,95401
2022-10-02T21:46:15.036Z,95406
2022-10-02T21:49:40.399Z,95406
2022-10-02T21:53:05.854Z,95407
2022-10-02T21:56:31.363Z,95412
2022-10-02T21:59:56.774Z,95413
2022-10-02T22:03:22.296Z,95412
2022-10-02T22:06:51.201Z,95418
2022-10-02T22:10:13.095Z,95417
2022-10-02T22:13:38.723Z,95419
2022-10-02T22:17:04.158Z,95418
2022-10-02T22:20:29.601Z,95422
2022-10-02T22:23:55.053Z,95425
2022-10-02T22:27:20.573Z,95427
2022-10-02T22:30:46.072Z,95425
2022-10-02T22:34:11.516Z,95428
2022-10-02T22:37:36.972Z,95426
2022-10-02T22:41:02.442Z,95428
2022-10-02T22:44:27.900Z,95430
2022-10-02T22:47:53.380Z,95433
2022-10-02T22:51:18.811Z,95427
2022-10-02T22:54:44.326Z,95430
2022-10-02T22:58:09.789Z,95430
2022-10-02T23:01:35.278Z,95432
2022-10-02T23:05:00.755Z,95440
2022-10-02T23:08:26.190Z,95436
2022-10-02T23:11:51.611Z,95436
2022-10-02T23:15:17.115Z,95439
2022-10-02T23:18:42.515Z,95440
2022-10-02T23:22:07.964Z,95440
2022-10-02T23:25:33.303Z,95443
2022-10-02T23:28:58.715Z,95448
2022-10-02T23:32:24.166Z,95453
2022-10-02T23:35:49.698Z,95446
2022-10-02T23:39:15.070Z,95445
2022-10-02T23:42:40.469Z,95454
2022-10-02T23:46:05.903Z,95463
2022-10-02T23:49:31.267Z,95462
2022-10-02T23:52:56.672Z,95467
2022-10-02T23:56:22.107Z,95470
2022-10-02T23:59:47.470Z,95470
